Time;durP1;ratioP1;P1;durP2;ratioP2;P2;SDS_P1;SDS_P2;PMS_P1;PMS_P2;Temp;Humidity;BMP_temperature;BMP_pressure;BME280_temperature;BME280_humidity;BME280_pressure;Samples;Min_cycle;Max_cycle;Signal;HPM_P1;HPM_P2
2022/01/20 00:03:36;;;;;;;0.30;0.30;;;21.60;52.50;;;;;;5004418;28;20125;-65
2022/01/20 00:27:54;;;;;;;0.52;0.32;;;21.60;52.70;;;;;;4927995;29;20090;-65
2022/01/20 00:37:46;;;;;;;1.48;0.32;;;21.60;52.70;;;;;;4887872;29;20040;-65
2022/01/20 00:40:11;;;;;;;0.52;0.38;;;21.70;52.80;;;;;;4912760;28;20039;-65
2022/01/20 00:42:37;;;;;;;0.88;0.40;;;21.70;52.80;;;;;;4949669;29;20060;-65
2022/01/20 00:45:03;;;;;;;1.27;0.35;;;21.70;52.80;;;;;;4960697;28;20047;-65
2022/01/20 00:47:29;;;;;;;0.30;0.30;;;21.70;52.80;;;;;;4958940;28;20031;-66
2022/01/20 00:49:54;;;;;;;0.65;0.40;;;21.70;52.80;;;;;;4984011;28;20037;-65
2022/01/20 00:52:20;;;;;;;1.50;0.40;;;21.70;52.90;;;;;;5047120;28;20045;-65
2022/01/20 00:54:46;;;;;;;2.30;0.40;;;21.70;52.90;;;;;;5021134;28;20025;-66
2022/01/20 00:57:12;;;;;;;0.80;0.43;;;21.70;52.90;;;;;;5041488;28;20029;-65
2022/01/20 00:59:38;;;;;;;2.08;0.30;;;21.70;52.90;;;;;;5044548;28;20100;-65
2022/01/20 01:02:06;;;;;;;0.57;0.30;;;21.80;52.90;;;;;;5035294;28;20107;-65
2022/01/20 01:04:32;;;;;;;1.35;0.40;;;21.70;52.90;;;;;;5029988;28;20021;-65
2022/01/20 01:09:32;;;;;;;0.75;0.35;;;21.70;52.90;;;;;;5051627;28;20067;-66
2022/01/20 01:12:02;;;;;;;0.77;0.32;;;21.70;52.90;;;;;;5039364;28;20032;-65
2022/01/20 01:14:30;;;;;;;1.98;0.30;;;21.80;53.00;;;;;;5052042;28;20028;-66
2022/01/20 01:22:30;;;;;;;1.27;0.40;;;21.70;53.00;;;;;;5051103;28;20048;-66
2022/01/20 01:24:54;;;;;;;2.72;0.40;;;21.70;53.00;;;;;;5042418;28;20033;-66
2022/01/20 01:27:21;;;;;;;0.75;0.47;;;21.70;53.00;;;;;;5043018;28;20048;-66
2022/01/20 01:32:35;;;;;;;1.00;0.40;;;21.80;53.10;;;;;;5037524;28;20055;-65
2022/01/20 01:35:05;;;;;;;0.90;0.40;;;21.70;53.00;;;;;;5031693;28;20036;-65
2022/01/20 01:39:59;;;;;;;0.47;0.40;;;21.70;53.10;;;;;;5036889;28;20091;-65
2022/01/20 01:42:32;;;;;;;0.75;0.43;;;21.80;53.20;;;;;;5050563;28;20021;-65
2022/01/20 01:45:09;;;;;;;0.52;0.30;;;21.70;53.10;;;;;;5035574;28;20017;-65
2022/01/20 01:47:34;;;;;;;0.60;0.30;;;21.80;53.10;;;;;;5018039;28;20498;-65
2022/01/20 01:50:00;;;;;;;2.55;0.43;;;21.70;53.10;;;;;;5035499;28;20030;-65
2022/01/20 01:52:26;;;;;;;1.90;0.40;;;21.80;53.20;;;;;;5050230;28;20020;-65
2022/01/20 01:54:51;;;;;;;1.88;0.70;;;21.80;53.40;;;;;;5039969;28;20021;-66
2022/01/20 01:57:17;;;;;;;1.30;0.50;;;21.80;53.00;;;;;;5045347;28;20380;-66
2022/01/20 01:59:43;;;;;;;0.98;0.52;;;21.70;52.90;;;;;;5048431;28;20029;-67
2022/01/20 02:02:08;;;;;;;2.45;0.52;;;21.70;52.90;;;;;;5036967;28;20079;-67
2022/01/20 02:04:34;;;;;;;2.53;0.70;;;21.70;53.00;;;;;;5051252;28;20025;-67
2022/01/20 02:20:42;;;;;;;1.55;0.60;;;21.50;53.00;;;;;;5039406;28;20025;-67
2022/01/20 02:23:07;;;;;;;1.67;0.60;;;21.50;53.00;;;;;;5046355;28;20021;-67
2022/01/20 02:25:35;;;;;;;1.17;0.68;;;21.50;53.00;;;;;;5028443;28;20467;-67
2022/01/20 02:28:05;;;;;;;0.80;0.40;;;21.50;53.00;;;;;;5038059;28;20072;-67
2022/01/20 02:30:31;;;;;;;1.00;0.50;;;21.50;53.00;;;;;;5049573;28;20454;-67
2022/01/20 02:33:03;;;;;;;0.80;0.43;;;21.40;53.00;;;;;;5040855;28;20052;-67
2022/01/20 02:35:32;;;;;;;1.52;0.30;;;21.50;53.00;;;;;;5043744;28;20026;-67
2022/01/20 02:38:08;;;;;;;3.55;0.50;;;21.40;53.00;;;;;;5047803;28;20024;-67
2022/01/20 02:45:50;;;;;;;1.58;0.70;;;21.30;53.10;;;;;;5046842;28;20027;-66
2022/01/20 02:48:15;;;;;;;1.23;0.52;;;21.30;53.10;;;;;;5036170;28;20108;-66
2022/01/20 02:50:41;;;;;;;1.33;0.57;;;21.30;53.20;;;;;;5048929;28;20041;-67
2022/01/20 02:53:07;;;;;;;4.35;0.50;;;21.30;53.20;;;;;;5041032;28;20021;-66
2022/01/20 02:55:32;;;;;;;2.67;0.60;;;21.20;53.10;;;;;;5025355;28;20017;-67
2022/01/20 02:57:58;;;;;;;1.08;0.45;;;21.20;53.20;;;;;;5048647;28;20029;-67
2022/01/20 03:00:24;;;;;;;3.03;0.63;;;21.20;53.20;;;;;;5019477;28;20026;-66
2022/01/20 03:02:49;;;;;;;1.58;0.65;;;21.20;53.20;;;;;;5049055;28;20025;-67
2022/01/20 03:05:15;;;;;;;0.82;0.50;;;21.20;53.20;;;;;;5041892;28;20035;-66
2022/01/20 03:07:42;;;;;;;0.47;0.32;;;21.10;53.20;;;;;;5034018;28;20037;-66
2022/01/20 03:10:08;;;;;;;3.17;0.50;;;21.10;53.30;;;;;;5053397;28;20064;-66
2022/01/20 03:12:34;;;;;;;2.03;0.70;;;21.10;53.30;;;;;;5035692;28;20053;-66
2022/01/20 03:14:59;;;;;;;3.70;0.88;;;21.10;53.30;;;;;;5047622;28;20092;-66
2022/01/20 03:17:25;;;;;;;2.95;0.70;;;21.00;53.30;;;;;;5043085;28;20033;-66
2022/01/20 03:19:51;;;;;;;2.10;0.40;;;21.00;53.30;;;;;;5039512;28;20059;-66
2022/01/20 03:22:16;;;;;;;2.20;0.50;;;21.00;53.30;;;;;;5032345;28;20112;-67
2022/01/20 03:24:42;;;;;;;1.67;0.60;;;21.00;53.30;;;;;;5049831;28;20072;-66
2022/01/20 03:27:08;;;;;;;1.02;0.52;;;21.00;53.40;;;;;;5022560;28;20192;-67
2022/01/20 03:29:33;;;;;;;2.53;0.50;;;21.00;53.50;;;;;;5042274;28;20127;-67
2022/01/20 03:31:59;;;;;;;2.22;0.73;;;20.90;53.40;;;;;;5016041;28;20022;-67
2022/01/20 03:34:24;;;;;;;1.65;0.50;;;20.90;53.40;;;;;;5049522;28;20028;-67
2022/01/20 03:36:50;;;;;;;1.00;0.40;;;20.90;53.40;;;;;;5037470;28;20036;-66
2022/01/20 03:39:16;;;;;;;1.70;0.40;;;20.80;53.50;;;;;;5049564;28;20379;-67
2022/01/20 03:41:41;;;;;;;1.30;0.40;;;20.80;53.50;;;;;;5041690;28;20527;-67
2022/01/20 03:44:07;;;;;;;0.63;0.40;;;20.80;53.50;;;;;;5046673;28;20500;-67
2022/01/20 03:46:33;;;;;;;1.08;0.43;;;20.80;53.50;;;;;;5035072;28;20108;-67
2022/01/20 03:49:11;;;;;;;1.98;0.50;;;20.70;53.40;;;;;;5046428;28;20518;-67
2022/01/20 03:51:37;;;;;;;3.03;1.00;;;20.70;53.50;;;;;;5027165;28;20043;-67
2022/01/20 03:54:05;;;;;;;1.60;0.32;;;20.70;53.60;;;;;;5037858;28;20391;-67
2022/01/20 03:56:31;;;;;;;1.95;0.65;;;20.70;53.60;;;;;;5032152;28;20084;-67
2022/01/20 03:58:56;;;;;;;0.60;0.40;;;20.70;53.60;;;;;;5031926;28;20018;-67
2022/01/20 04:01:22;;;;;;;1.48;0.50;;;20.70;53.60;;;;;;5042819;28;20029;-67
2022/01/20 04:03:48;;;;;;;3.00;0.43;;;20.70;53.70;;;;;;5039580;28;20025;-67
2022/01/20 04:06:14;;;;;;;1.55;0.35;;;20.60;53.60;;;;;;5039252;28;20438;-67
2022/01/20 04:08:41;;;;;;;0.70;0.30;;;20.60;53.70;;;;;;5048988;28;20184;-67
2022/01/20 04:11:08;;;;;;;2.72;0.63;;;20.60;53.60;;;;;;5026565;28;20020;-67
2022/01/20 04:13:35;;;;;;;0.75;0.50;;;20.60;53.70;;;;;;5035040;28;20017;-67
2022/01/20 04:16:19;;;;;;;0.98;0.40;;;20.50;53.70;;;;;;5045738;28;20076;-67
2022/01/20 04:18:52;;;;;;;1.55;0.40;;;20.60;53.80;;;;;;5031534;28;20495;-66
2022/01/20 04:21:25;;;;;;;1.70;0.50;;;20.50;53.70;;;;;;5032932;28;20025;-67
2022/01/20 04:23:50;;;;;;;;;;;20.50;53.70;;;;;;5041963;28;20497;-66
2022/01/20 04:26:16;;;;;;;2.55;0.43;;;20.50;54.90;;;;;;5035715;28;19909;-67
2022/01/20 04:28:42;;;;;;;4.20;0.52;;;20.40;54.00;;;;;;5022173;28;20080;-67
2022/01/20 04:31:07;;;;;;;0.90;0.70;;;20.40;54.00;;;;;;5027679;28;20041;-67
2022/01/20 04:33:33;;;;;;;0.90;0.40;;;20.40;53.90;;;;;;5044239;28;20027;-67
2022/01/20 04:35:59;;;;;;;0.63;0.38;;;20.40;53.90;;;;;;5037153;28;20389;-67
2022/01/20 04:38:25;;;;;;;1.02;0.47;;;20.40;54.00;;;;;;5044047;28;20120;-66
2022/01/20 04:40:51;;;;;;;0.30;0.30;;;20.40;53.90;;;;;;5034264;28;20009;-66
2022/01/20 04:43:17;;;;;;;1.00;0.30;;;20.40;54.00;;;;;;5043177;28;20041;-66
2022/01/20 04:45:50;;;;;;;1.38;0.40;;;20.40;53.90;;;;;;5035835;28;20022;-66
2022/01/20 04:48:23;;;;;;;0.98;0.50;;;20.30;53.90;;;;;;5037358;28;20013;-66
2022/01/20 04:59:01;;;;;;;1.85;0.50;;;20.30;54.00;;;;;;5043577;28;20040;-67
2022/01/20 05:01:27;;;;;;;1.15;0.28;;;20.30;54.00;;;;;;5034733;28;20021;-67
2022/01/20 05:03:54;;;;;;;1.20;0.50;;;20.20;54.00;;;;;;5047806;28;20052;-66
2022/01/20 05:06:20;;;;;;;1.08;0.40;;;20.20;54.00;;;;;;5037606;28;20017;-67
2022/01/20 05:08:46;;;;;;;3.97;0.63;;;20.20;54.00;;;;;;5049689;28;20032;-66
2022/01/20 05:11:13;;;;;;;1.00;0.32;;;20.20;54.10;;;;;;5039404;28;20039;-67
2022/01/20 05:13:40;;;;;;;0.70;0.40;;;20.20;54.10;;;;;;5042435;28;20024;-67
2022/01/20 05:16:06;;;;;;;0.88;0.55;;;20.20;54.10;;;;;;5044834;28;20021;-66
2022/01/20 05:18:31;;;;;;;1.15;0.30;;;20.20;54.10;;;;;;5035181;28;20037;-66
2022/01/20 05:20:57;;;;;;;2.45;0.38;;;20.20;54.10;;;;;;5046766;28;20094;-67
2022/01/20 05:23:23;;;;;;;1.05;0.43;;;20.20;54.20;;;;;;5038657;28;20025;-66
2022/01/20 05:25:49;;;;;;;1.65;0.50;;;20.20;54.10;;;;;;5034260;28;20025;-67
2022/01/20 05:28:14;;;;;;;0.70;0.30;;;20.10;54.10;;;;;;5030245;28;20049;-66
2022/01/20 05:30:40;;;;;;;2.25;0.68;;;20.10;54.10;;;;;;5029520;28;20555;-67
2022/01/20 05:33:06;;;;;;;1.95;0.50;;;20.10;54.10;;;;;;5031440;28;20443;-66
2022/01/20 05:35:32;;;;;;;1.60;0.40;;;20.10;54.20;;;;;;5030823;28;20025;-66
2022/01/20 05:37:57;;;;;;;3.80;0.43;;;20.10;54.20;;;;;;5030602;28;20056;-67
2022/01/20 05:40:25;;;;;;;0.80;0.32;;;20.10;54.30;;;;;;5031667;28;20538;-66
2022/01/20 05:42:50;;;;;;;0.73;0.45;;;20.10;54.30;;;;;;5030653;28;20025;-66
2022/01/20 05:45:16;;;;;;;0.70;0.40;;;20.10;54.30;;;;;;5030587;28;20068;-67
2022/01/20 05:47:47;;;;;;;0.47;0.40;;;20.10;54.40;;;;;;5031382;28;20049;-67
2022/01/20 05:50:17;;;;;;;5.78;0.50;;;20.00;54.20;;;;;;5030399;28;20026;-66
2022/01/20 05:52:43;;;;;;;1.33;0.40;;;20.00;54.30;;;;;;5031175;28;20021;-67
2022/01/20 05:55:10;;;;;;;1.40;0.47;;;20.00;54.30;;;;;;5034284;28;20057;-67
2022/01/20 05:57:36;;;;;;;0.70;0.47;;;20.00;54.30;;;;;;5034109;28;20424;-67
2022/01/20 06:00:04;;;;;;;0.73;0.30;;;20.00;54.30;;;;;;5035379;28;20064;-66
2022/01/20 06:02:36;;;;;;;0.57;0.32;;;20.00;54.40;;;;;;5035344;28;20021;-67
2022/01/20 06:05:02;;;;;;;1.23;0.38;;;20.00;54.40;;;;;;5034012;28;20033;-66
2022/01/20 06:07:28;;;;;;;1.63;0.47;;;19.90;54.40;;;;;;5034205;28;20104;-66
2022/01/20 06:09:53;;;;;;;1.20;0.40;;;20.00;54.50;;;;;;5055139;28;20121;-66
2022/01/20 06:12:19;;;;;;;0.50;0.40;;;19.90;54.40;;;;;;5054999;28;20390;-66
2022/01/20 06:14:44;;;;;;;3.22;0.68;;;19.90;54.40;;;;;;5053759;28;20041;-66
2022/01/20 06:17:10;;;;;;;1.02;0.45;;;19.90;54.40;;;;;;5054597;28;20103;-66
2022/01/20 06:19:36;;;;;;;1.42;0.52;;;19.90;54.40;;;;;;5053728;28;20100;-67
2022/01/20 06:22:02;;;;;;;0.98;0.50;;;19.90;54.50;;;;;;5054928;28;20029;-66
2022/01/20 06:24:27;;;;;;;0.98;0.40;;;19.90;54.50;;;;;;5054950;28;20029;-67
2022/01/20 06:26:53;;;;;;;0.90;0.40;;;19.90;54.50;;;;;;5039481;28;20022;-67
2022/01/20 06:29:19;;;;;;;0.90;0.52;;;19.90;54.40;;;;;;5035330;28;20036;-67
2022/01/20 06:31:44;;;;;;;1.20;0.40;;;19.80;54.20;;;;;;5033493;28;20036;-67
2022/01/20 06:34:10;;;;;;;0.88;0.50;;;19.80;54.30;;;;;;5036910;28;20380;-67
2022/01/20 06:36:35;;;;;;;1.23;0.32;;;19.80;54.30;;;;;;5034452;28;20045;-67
2022/01/20 06:39:01;;;;;;;1.92;0.50;;;19.70;54.30;;;;;;5041496;28;20514;-67
2022/01/20 06:41:27;;;;;;;1.02;0.35;;;19.70;54.20;;;;;;5049857;28;20406;-67
2022/01/20 06:43:52;;;;;;;1.10;0.50;;;19.70;54.20;;;;;;5031934;28;20040;-67
2022/01/20 06:46:18;;;;;;;0.50;0.50;;;19.70;54.20;;;;;;5037583;28;20025;-67
2022/01/20 06:48:44;;;;;;;1.77;0.43;;;19.70;54.10;;;;;;5048895;28;20029;-67
2022/01/20 06:51:09;;;;;;;0.77;0.50;;;19.60;54.10;;;;;;5032593;28;20024;-67
2022/01/20 06:53:35;;;;;;;0.93;0.43;;;19.60;54.10;;;;;;5050105;28;20040;-67
2022/01/20 06:56:01;;;;;;;1.00;0.50;;;19.60;54.10;;;;;;5049982;28;20013;-67
2022/01/20 06:58:26;;;;;;;0.60;0.40;;;19.60;54.10;;;;;;5032607;28;20024;-67
2022/01/20 07:00:52;;;;;;;1.42;0.50;;;19.60;54.10;;;;;;5035882;28;20048;-67
2022/01/20 07:03:17;;;;;;;3.42;0.60;;;19.60;55.10;;;;;;5037610;28;20022;-67
2022/01/20 07:05:43;;;;;;;1.08;0.30;;;19.60;54.10;;;;;;5033183;28;20502;-67
2022/01/20 07:08:09;;;;;;;0.75;0.50;;;19.50;54.60;;;;;;5033910;28;20487;-67
2022/01/20 07:10:34;;;;;;;0.60;0.43;;;19.50;54.00;;;;;;5037686;28;20017;-67
2022/01/20 07:13:00;;;;;;;0.57;0.40;;;19.50;54.00;;;;;;5034828;28;20026;-67
2022/01/20 07:15:26;;;;;;;0.68;0.52;;;19.50;54.00;;;;;;5034213;28;20085;-67
2022/01/20 07:17:51;;;;;;;0.70;0.50;;;19.50;54.00;;;;;;5037890;28;20028;-67
2022/01/20 07:20:17;;;;;;;0.88;0.50;;;19.50;54.00;;;;;;5020937;28;20025;-67
2022/01/20 07:22:43;;;;;;;0.98;0.50;;;19.50;54.10;;;;;;5038490;28;20025;-68
2022/01/20 07:25:08;;;;;;;1.23;0.43;;;19.50;54.10;;;;;;5036435;28;20037;-68
2022/01/20 07:27:34;;;;;;;2.58;0.70;;;19.50;54.00;;;;;;5033688;28;20107;-67
2022/01/20 07:30:00;;;;;;;4.07;0.90;;;19.50;54.10;;;;;;5030332;28;20360;-67
2022/01/20 07:32:25;;;;;;;4.78;1.10;;;19.40;54.10;;;;;;5031042;28;20038;-67
2022/01/20 07:34:51;;;;;;;5.32;1.33;;;19.50;54.30;;;;;;5033839;28;20449;-68
2022/01/20 07:37:17;;;;;;;6.18;1.50;;;19.50;54.20;;;;;;5031216;28;20037;-67
2022/01/20 07:39:42;;;;;;;6.97;1.80;;;19.50;54.30;;;;;;5032578;28;20480;-67
2022/01/20 07:42:08;;;;;;;7.00;1.40;;;19.50;54.30;;;;;;5031599;28;20110;-70
2022/01/20 07:44:34;;;;;;;6.53;1.65;;;19.50;54.30;;;;;;5031346;28;20025;-68
2022/01/20 07:47:00;;;;;;;7.43;1.70;;;19.50;54.30;;;;;;5033804;28;20442;-67
2022/01/20 07:49:27;;;;;;;6.93;1.75;;;19.50;54.40;;;;;;5049951;28;20302;-67
2022/01/20 07:51:53;;;;;;;4.13;1.33;;;19.50;54.30;;;;;;5050641;28;20063;-67
2022/01/20 07:54:20;;;;;;;3.97;1.55;;;19.50;54.30;;;;;;5051168;28;20023;-68
2022/01/20 07:56:48;;;;;;;10.55;1.55;;;19.50;54.30;;;;;;5034555;28;20024;-67
2022/01/20 07:59:14;;;;;;;7.75;1.58;;;19.50;54.40;;;;;;5051292;28;20018;-68
2022/01/20 08:01:40;;;;;;;6.28;1.67;;;19.50;54.50;;;;;;5050836;28;20051;-67
2022/01/20 08:04:05;;;;;;;7.00;1.60;;;19.50;54.40;;;;;;5051208;28;20017;-68
2022/01/20 08:06:31;;;;;;;8.68;1.73;;;19.50;54.40;;;;;;5048570;28;20391;-68
2022/01/20 08:08:57;;;;;;;8.23;1.90;;;19.50;54.50;;;;;;5043672;28;20096;-67
2022/01/20 08:11:22;;;;;;;7.05;1.13;;;19.50;55.50;;;;;;5040083;28;20029;-67
2022/01/20 08:13:48;;;;;;;5.05;1.30;;;19.50;54.60;;;;;;5032873;28;20053;-68
2022/01/20 08:16:14;;;;;;;4.80;1.20;;;19.40;54.50;;;;;;5048420;28;20029;-68
2022/01/20 08:18:40;;;;;;;5.65;1.25;;;19.40;54.60;;;;;;5035024;28;20466;-67
2022/01/20 08:21:06;;;;;;;4.00;1.20;;;19.40;54.60;;;;;;5052460;28;20025;-67
2022/01/20 08:23:31;;;;;;;7.72;1.33;;;19.40;54.60;;;;;;5028135;28;20017;-67
2022/01/20 08:25:57;;;;;;;4.95;1.45;;;19.40;54.60;;;;;;5031173;28;20029;-67
2022/01/20 08:28:23;;;;;;;5.70;1.42;;;19.40;54.60;;;;;;5031141;28;20499;-68
2022/01/20 08:30:50;;;;;;;4.07;1.60;;;19.40;54.60;;;;;;5032499;28;20472;-68
2022/01/20 08:33:15;;;;;;;3.50;1.55;;;19.40;54.60;;;;;;5031207;28;20022;-68
2022/01/20 08:35:41;;;;;;;5.18;1.30;;;19.40;54.70;;;;;;5031225;28;20041;-67
2022/01/20 08:38:07;;;;;;;3.78;1.25;;;19.40;54.70;;;;;;5031041;28;20491;-68
2022/01/20 08:40:33;;;;;;;6.13;1.30;;;19.40;54.70;;;;;;5037380;28;20024;-68
2022/01/20 08:42:59;;;;;;;7.45;2.10;;;19.40;54.70;;;;;;5034458;28;20029;-67
2022/01/20 08:45:27;;;;;;;3.50;1.50;;;19.40;54.70;;;;;;5052203;28;20090;-67
2022/01/20 08:47:55;;;;;;;4.05;1.08;;;19.40;54.80;;;;;;5034606;28;20036;-67
2022/01/20 08:50:21;;;;;;;6.53;1.38;;;19.40;54.80;;;;;;5051068;28;20021;-67
2022/01/20 08:52:47;;;;;;;2.67;1.00;;;19.40;54.80;;;;;;5052177;28;20021;-68
2022/01/20 08:55:12;;;;;;;5.65;1.38;;;19.40;54.80;;;;;;5033917;28;20029;-67
2022/01/20 08:57:38;;;;;;;2.95;1.20;;;19.40;54.80;;;;;;5034446;28;20493;-68
2022/01/20 09:00:04;;;;;;;3.75;1.05;;;19.40;54.80;;;;;;5050864;28;20070;-68
2022/01/20 09:02:30;;;;;;;5.55;1.17;;;19.40;54.90;;;;;;5051977;28;20025;-67
2022/01/20 09:04:55;;;;;;;4.95;1.10;;;19.40;54.90;;;;;;5050505;28;20039;-68
2022/01/20 09:07:21;;;;;;;2.45;1.27;;;19.40;54.90;;;;;;5042857;28;20029;-68
2022/01/20 09:09:48;;;;;;;3.05;1.00;;;19.40;54.90;;;;;;5031857;28;20029;-67
2022/01/20 09:15:27;;;;;;;4.13;1.35;;;19.40;54.90;;;;;;5030681;28;20152;-68
2022/01/20 09:17:58;;;;;;;2.85;0.88;;;19.30;55.10;;;;;;5051075;28;20032;-68
2022/01/20 09:20:24;;;;;;;3.25;1.10;;;19.30;55.10;;;;;;5050908;28;20463;-67
2022/01/20 09:22:51;;;;;;;2.33;0.90;;;19.30;55.10;;;;;;5051840;28;20025;-67
2022/01/20 09:25:16;;;;;;;1.83;0.85;;;19.30;55.10;;;;;;5033894;28;20487;-67
2022/01/20 09:27:42;;;;;;;2.60;1.00;;;19.30;55.10;;;;;;5051063;28;20112;-68
2022/01/20 09:30:09;;;;;;;4.40;0.80;;;19.30;55.10;;;;;;5038268;28;20068;-68
2022/01/20 09:32:38;;;;;;;3.03;1.00;;;19.30;55.10;;;;;;5038193;28;20014;-67
2022/01/20 09:35:04;;;;;;;2.42;0.90;;;19.30;55.10;;;;;;5054287;28;20514;-67
2022/01/20 09:37:30;;;;;;;1.77;0.80;;;19.30;55.10;;;;;;5054451;28;20107;-68
2022/01/20 09:39:56;;;;;;;5.50;1.30;;;19.30;55.10;;;;;;5037794;28;20112;-68
2022/01/20 09:42:22;;;;;;;2.47;0.85;;;19.30;55.10;;;;;;5038070;28;20021;-67
2022/01/20 09:44:48;;;;;;;1.67;0.80;;;19.30;55.10;;;;;;5054206;28;20029;-67
2022/01/20 09:47:17;;;;;;;3.85;0.88;;;19.30;55.10;;;;;;5054296;28;20078;-68
2022/01/20 09:49:43;;;;;;;3.08;0.98;;;19.30;55.10;;;;;;5037767;28;20115;-68
2022/01/20 09:52:09;;;;;;;1.88;0.80;;;19.30;55.10;;;;;;5054134;28;20112;-67
2022/01/20 09:54:34;;;;;;;2.97;0.75;;;19.30;55.10;;;;;;5054003;28;20105;-67
2022/01/20 09:57:00;;;;;;;2.15;1.00;;;19.30;55.10;;;;;;5054030;28;20017;-68
2022/01/20 09:59:26;;;;;;;3.08;1.10;;;19.30;55.10;;;;;;5055152;28;20048;-67
2022/01/20 10:01:56;;;;;;;2.55;0.88;;;19.30;55.10;;;;;;5054092;28;20120;-70
2022/01/20 10:04:34;;;;;;;2.30;0.70;;;19.30;55.10;;;;;;5037872;28;20100;-70
2022/01/20 10:07:12;;;;;;;2.45;0.88;;;19.40;55.20;;;;;;5047366;28;20132;-68
2022/01/20 10:09:44;;;;;;;1.67;0.70;;;19.30;55.10;;;;;;5017664;28;20021;-68
2022/01/20 10:12:10;;;;;;;;;;;19.30;55.10;;;;;;5034340;28;20026;-67
2022/01/20 10:14:39;;;;;;;1.13;0.70;;;19.20;55.30;;;;;;5039539;28;19931;-68
2022/01/20 10:17:22;;;;;;;2.25;0.77;;;19.20;55.40;;;;;;5054876;28;20103;-68
2022/01/20 10:19:52;;;;;;;1.63;0.73;;;19.20;55.40;;;;;;5053885;28;20021;-68
2022/01/20 10:22:21;;;;;;;2.28;0.70;;;19.20;55.40;;;;;;5054254;28;20479;-68
2022/01/20 10:25:10;;;;;;;2.50;0.85;;;19.30;55.40;;;;;;5054741;28;20025;-68
2022/01/20 10:27:49;;;;;;;1.45;0.63;;;19.30;55.40;;;;;;5054613;28;20037;-68
2022/01/20 10:30:15;;;;;;;2.00;0.68;;;19.30;55.40;;;;;;5054592;28;20483;-68
2022/01/20 10:32:48;;;;;;;0.85;0.73;;;19.20;55.40;;;;;;5053573;28;20064;-68
2022/01/20 10:35:15;;;;;;;1.42;0.70;;;19.20;55.40;;;;;;5053635;28;20029;-68
2022/01/20 10:37:51;;;;;;;1.52;0.70;;;19.20;56.40;;;;;;5036490;28;20116;-68
2022/01/20 10:40:17;;;;;;;2.33;0.80;;;19.30;55.40;;;;;;5035357;28;20399;-68
2022/01/20 10:42:45;;;;;;;1.65;0.60;;;19.30;55.40;;;;;;5053259;28;20032;-67
2022/01/20 10:45:18;;;;;;;1.20;0.52;;;19.30;55.40;;;;;;5053083;28;20029;-68
2022/01/20 10:47:47;;;;;;;1.17;0.63;;;19.30;55.40;;;;;;5054400;28;20025;-68
2022/01/20 10:50:15;;;;;;;1.75;0.70;;;19.30;55.40;;;;;;5054321;28;20048;-68
2022/01/20 10:52:44;;;;;;;1.98;0.60;;;19.30;55.50;;;;;;5054067;28;20029;-68
2022/01/20 10:55:25;;;;;;;1.52;0.63;;;19.30;55.50;;;;;;5053225;28;20017;-68
2022/01/20 10:57:52;;;;;;;0.80;0.40;;;19.30;55.50;;;;;;5054178;28;20511;-67
2022/01/20 11:00:19;;;;;;;1.48;0.50;;;19.20;55.40;;;;;;5053983;28;20060;-67
2022/01/20 11:02:50;;;;;;;0.90;0.50;;;19.20;55.40;;;;;;5053232;28;20036;-68
2022/01/20 11:05:16;;;;;;;1.20;0.52;;;19.30;55.50;;;;;;5052548;28;20075;-67
2022/01/20 11:07:43;;;;;;;0.82;0.55;;;19.20;55.40;;;;;;5042095;28;20021;-68
2022/01/20 11:10:10;;;;;;;1.23;0.85;;;19.30;55.50;;;;;;5032718;28;20507;-67
2022/01/20 11:12:36;;;;;;;1.20;0.60;;;19.30;55.50;;;;;;5034056;28;20018;-68
2022/01/20 11:15:04;;;;;;;1.95;0.80;;;19.30;55.60;;;;;;5041946;28;20162;-68
2022/01/20 11:17:30;;;;;;;1.38;0.55;;;19.30;55.50;;;;;;5053902;28;20017;-67
2022/01/20 11:19:57;;;;;;;0.88;0.50;;;19.30;55.50;;;;;;5035797;28;20029;-68
2022/01/20 11:22:22;;;;;;;1.45;0.60;;;19.30;55.60;;;;;;5035948;28;20125;-68
2022/01/20 11:24:59;;;;;;;0.80;0.70;;;19.20;55.50;;;;;;5053709;28;20490;-68
2022/01/20 11:27:40;;;;;;;1.10;0.50;;;19.20;55.50;;;;;;5053406;28;20120;-68
2022/01/20 11:30:33;;;;;;;0.98;0.45;;;19.30;55.60;;;;;;5036721;28;20025;-68
2022/01/20 11:33:11;;;;;;;2.28;0.63;;;19.30;55.60;;;;;;5051530;28;20179;-67
2022/01/20 11:35:38;;;;;;;0.93;0.60;;;19.30;55.70;;;;;;5051927;28;20032;-68
2022/01/20 11:38:04;;;;;;;0.63;0.50;;;19.20;55.60;;;;;;5052345;28;20025;-68
2022/01/20 11:40:29;;;;;;;1.15;0.60;;;19.20;55.60;;;;;;5053177;28;20138;-68
2022/01/20 11:43:10;;;;;;;2.13;0.60;;;19.20;55.60;;;;;;5053463;28;20062;-68
2022/01/20 11:45:37;;;;;;;0.68;0.50;;;19.30;55.70;;;;;;5053167;28;20052;-67
2022/01/20 11:48:16;;;;;;;0.90;0.50;;;19.20;55.70;;;;;;5052166;28;20013;-68
2022/01/20 11:50:43;;;;;;;2.17;0.50;;;19.30;55.80;;;;;;5052554;28;20078;-68
2022/01/20 11:53:13;;;;;;;1.17;0.50;;;19.20;55.70;;;;;;5052138;28;20028;-68
2022/01/20 11:55:50;;;;;;;0.68;0.50;;;19.30;55.80;;;;;;5052907;28;20021;-68
2022/01/20 11:58:17;;;;;;;1.17;0.60;;;19.30;55.80;;;;;;5053089;28;20025;-67
2022/01/20 12:00:43;;;;;;;1.45;0.57;;;19.20;55.70;;;;;;5051814;28;20047;-68
2022/01/20 12:03:13;;;;;;;0.52;0.43;;;19.20;55.80;;;;;;5051579;28;20092;-68
2022/01/20 12:05:39;;;;;;;1.02;0.50;;;19.20;55.80;;;;;;5051688;28;20025;-68
2022/01/20 12:08:11;;;;;;;0.82;0.45;;;19.20;55.80;;;;;;5037641;28;20029;-68
2022/01/20 12:10:40;;;;;;;0.52;0.50;;;19.30;55.80;;;;;;5031933;28;20029;-67
2022/01/20 12:13:07;;;;;;;0.95;0.57;;;19.20;55.80;;;;;;5031822;28;20035;-67
2022/01/20 12:15:33;;;;;;;0.57;0.45;;;19.20;55.80;;;;;;5045176;28;20479;-68
2022/01/20 12:17:59;;;;;;;1.05;0.52;;;19.20;55.80;;;;;;5051164;28;20104;-67
2022/01/20 12:20:24;;;;;;;1.00;0.70;;;19.20;55.90;;;;;;5052486;28;20491;-68
2022/01/20 12:22:51;;;;;;;1.00;0.50;;;19.20;55.80;;;;;;5051684;28;20055;-68
2022/01/20 12:25:18;;;;;;;1.23;0.50;;;19.30;55.90;;;;;;5034710;28;20021;-67
2022/01/20 12:27:44;;;;;;;0.70;0.45;;;19.20;55.90;;;;;;5034749;28;20086;-67
2022/01/20 12:30:23;;;;;;;0.95;0.60;;;19.30;55.90;;;;;;5051318;28;20033;-67
2022/01/20 12:33:07;;;;;;;0.82;0.60;;;19.30;56.00;;;;;;5035228;28;20040;-67
2022/01/20 12:35:41;;;;;;;0.52;0.50;;;19.30;56.00;;;;;;5051295;28;20064;-68
2022/01/20 12:38:27;;;;;;;0.57;0.40;;;19.30;56.00;;;;;;5052321;28;20025;-67
2022/01/20 12:41:13;;;;;;;0.95;0.75;;;19.30;56.00;;;;;;5052434;28;20021;-68
2022/01/20 12:43:43;;;;;;;1.10;0.50;;;19.30;56.00;;;;;;5051261;28;20029;-67
2022/01/20 12:46:38;;;;;;;0.85;0.60;;;19.30;56.10;;;;;;5051038;28;20020;-67
2022/01/20 12:49:11;;;;;;;1.08;0.57;;;19.20;56.00;;;;;;5051951;28;20033;-67
2022/01/20 12:51:38;;;;;;;0.40;0.25;;;19.20;56.00;;;;;;5034945;28;20032;-68
2022/01/20 12:54:17;;;;;;;0.82;0.47;;;19.20;56.00;;;;;;5052161;28;20025;-67
2022/01/20 12:56:44;;;;;;;0.50;0.40;;;19.30;56.10;;;;;;5052167;28;20036;-68
2022/01/20 12:59:10;;;;;;;0.47;0.40;;;19.20;56.10;;;;;;5052270;28;20044;-68
2022/01/20 13:01:45;;;;;;;2.15;0.60;;;19.20;56.10;;;;;;5051550;28;20110;-67
2022/01/20 13:04:16;;;;;;;0.90;0.60;;;19.30;56.10;;;;;;5050390;28;20032;-67
2022/01/20 13:06:50;;;;;;;1.33;0.43;;;19.30;56.20;;;;;;5047165;28;20606;-67
2022/01/20 13:09:18;;;;;;;1.13;0.50;;;19.20;56.10;;;;;;5031160;28;20143;-67
2022/01/20 13:11:54;;;;;;;0.80;0.47;;;19.20;56.10;;;;;;5032068;28;20025;-67
2022/01/20 13:14:22;;;;;;;0.35;0.35;;;19.20;56.10;;;;;;5035333;28;20013;-67
2022/01/20 13:16:52;;;;;;;0.75;0.52;;;19.20;56.10;;;;;;5034480;28;20033;-67
2022/01/20 13:19:19;;;;;;;0.70;0.50;;;19.30;56.20;;;;;;5050671;28;20029;-67
2022/01/20 13:21:51;;;;;;;0.47;0.43;;;19.20;56.10;;;;;;5034405;28;20391;-67
2022/01/20 13:24:24;;;;;;;1.20;0.60;;;19.20;56.10;;;;;;5050762;28;20028;-67
2022/01/20 13:26:51;;;;;;;0.80;0.40;;;19.20;56.20;;;;;;5034964;28;20498;-67
2022/01/20 13:29:17;;;;;;;0.60;0.32;;;19.20;56.20;;;;;;5052001;28;20127;-67
2022/01/20 13:31:42;;;;;;;1.17;0.50;;;19.20;56.20;;;;;;5050274;28;20045;-67
2022/01/20 13:34:13;;;;;;;0.70;0.40;;;19.30;56.20;;;;;;5051842;28;20064;-67
2022/01/20 13:36:44;;;;;;;0.35;0.30;;;19.30;56.20;;;;;;5050740;28;20017;-67
2022/01/20 13:39:10;;;;;;;0.55;0.28;;;19.20;56.20;;;;;;5050675;28;20033;-67
2022/01/20 13:41:36;;;;;;;0.38;0.30;;;19.30;56.30;;;;;;5033933;28;20392;-67
2022/01/20 13:46:59;;;;;;;1.00;0.60;;;19.20;56.30;;;;;;5051287;28;20028;-67
2022/01/20 13:49:25;;;;;;;0.75;0.50;;;19.30;56.30;;;;;;5035235;28;20024;-67
2022/01/20 13:52:07;;;;;;;0.50;0.43;;;19.30;56.40;;;;;;5050471;28;20442;-67
2022/01/20 13:54:37;;;;;;;0.80;0.45;;;19.30;56.30;;;;;;5034020;28;20029;-67
2022/01/20 13:57:03;;;;;;;1.15;0.55;;;19.30;56.40;;;;;;5034142;28;20107;-67
2022/01/20 13:59:29;;;;;;;1.38;0.50;;;19.20;56.40;;;;;;5049916;28;20096;-67
2022/01/20 14:01:54;;;;;;;0.43;0.43;;;19.20;56.40;;;;;;5051589;28;20499;-67
2022/01/20 14:04:20;;;;;;;1.20;0.50;;;19.20;56.30;;;;;;5051403;28;20021;-67
2022/01/20 14:06:45;;;;;;;0.47;0.40;;;19.30;56.40;;;;;;5029390;28;20022;-67
2022/01/20 14:09:11;;;;;;;0.63;0.28;;;19.30;56.40;;;;;;5031755;28;20036;-67